ADDS METAR Data INFO
IDs: Format: Raw Decoded Include TAF

Data at: 0709 UTC 19 Oct 2017

KMOD 190653Z AUTO 00000KT 10SM CLR 12/07 A2995 RMK AO2 SLP142 T01220067
KMOD 190553Z AUTO 00000KT 10SM CLR 13/08 A2995 RMK AO2 SLP141 T01330078 10272 20133 53002
KMOD 190453Z AUTO 00000KT 10SM CLR 18/06 A2994 RMK AO2 SLP138 T01780056
KMOD 190353Z 01004KT 10SM CLR 20/06 A2994 RMK AO2 SLP138 T02000056
KMOD 190253Z 33008KT 9SM CLR 21/05 A2994 RMK AO2 SLP138 T02110050 53003
KMOD 190153Z 00000KT 10SM CLR 20/06 A2993 RMK AO2 SLP135 T02000056
KMOD 190053Z 00000KT 9SM CLR 25/03 A2992 RMK AO2 SLP133 T02500033
KMOD 182353Z 30006KT 10SM CLR 27/M01 A2993 RMK AO2 SLP135 T02721011 10278 20194 56018
KMOD 182253Z 29004KT 8SM CLR 28/02 A2994 RMK AO2 SLP139 T02780022
KMOD 182153Z VRB03KT 8SM CLR 27/04 A2996 RMK AO2 SLP144 T02720039
KMOD 182053Z 31005KT 8SM CLR 26/03 A2998 RMK AO2 SLP154 T02610033 58022
KMOD 181953Z 29004KT 9SM CLR 24/03 A3002 RMK AO2 SLP166 T02440033
KMOD 181853Z 27003KT 10SM CLR 22/03 A3004 RMK AO2 SLP173 T02220028
KMOD 181753Z 00000KT 9SM CLR 20/04 A3005 RMK AO2 SLP176 T02000039 10200 20078 50010
KMOD 181653Z 02004KT 8SM CLR 17/05 A3005 RMK AO2 SLP178 T01670050
KMOD 181553Z 34003KT 6SM HZ CLR 13/07 A3004 RMK AO2 SLP173 T01280072
KMOD 181453Z 00000KT 5SM BR CLR 08/06 A3002 RMK AO2 SLP166 T00830061 53007
KMOD 181353Z AUTO 29003KT 6SM HZ CLR 10/07 A3001 RMK AO2 SLP163 T01000067
KMOD 181253Z AUTO 00000KT 7SM CLR 09/07 A3001 RMK AO2 SLP162 T00940067
KMOD 181153Z AUTO 00000KT 7SM CLR 09/07 A3000 RMK AO2 SLP159 T00890072 10161 20083 57004
KMOD 181053Z AUTO 11003KT 8SM CLR 09/07 A3000 RMK AO2 SLP159 T00940072
KMOD 180953Z AUTO 00000KT 9SM CLR 12/08 A3001 RMK AO2 SLP164 T01170078
KMOD 180853Z AUTO 00000KT 9SM CLR 12/08 A3001 RMK AO2 SLP164 T01170083 55002
KMOD 180753Z AUTO 00000KT 9SM CLR 13/08 A3001 RMK AO2 SLP161 T01280083 402780094
KMOD 180653Z AUTO 00000KT 9SM CLR 14/09 A3002 RMK AO2 SLP165 T01440089
KMOD 180553Z AUTO 00000KT 9SM CLR 16/07 A3002 RMK AO2 SLP165 T01610072 10261 20161 56001
KMOD 180453Z AUTO 32005KT 10SM CLR 18/07 A3002 RMK AO2 SLP166 T01830067
KMOD 180353Z 30003KT 10SM CLR 17/08 A3002 RMK AO2 SLP166 T01720078
KMOD 180253Z 00000KT 10SM CLR 19/07 A3002 RMK AO2 SLP166 T01890072 53002
KMOD 180153Z 31005KT 10SM CLR 22/06 A3001 RMK AO2 SLP162 T02220061
KMOD 180053Z 30006KT 8SM CLR 24/06 A3000 RMK AO2 SLP159 T02390061
KMOD 172353Z 30007KT 8SM CLR 26/06 A3002 RMK AO2 SLP165 T02610061 10278 20217 56009
KMOD 172253Z 31009KT 8SM CLR 27/04 A3002 RMK AO2 SLP167 T02670044
KMOD 172153Z 33008KT 7SM CLR 27/03 A3003 RMK AO2 SLP169 T02720033
KMOD 172053Z 29008KT 7SM CLR 28/05 A3004 RMK AO2 SLP174 T02780050 58020
KMOD 171953Z 31007KT 7SM CLR 26/04 A3008 RMK AO2 SLP185 T02610044